sensor_id;sensor_type;location;lat;lon;timestamp;temperature;humidity
17859;DHT22;35426;30.698;104.050;2023-04-24T00:01:50;15.10;99.90
17859;DHT22;35426;30.698;104.050;2023-04-24T00:04:23;15.40;99.90
17859;DHT22;35426;30.698;104.050;2023-04-24T00:06:57;15.20;99.90
17859;DHT22;35426;30.698;104.050;2023-04-24T00:09:33;15.20;99.90
17859;DHT22;35426;30.698;104.050;2023-04-24T00:12:07;15.70;99.90
17859;DHT22;35426;30.698;104.050;2023-04-24T00:14:45;15.50;99.90
17859;DHT22;35426;30.698;104.050;2023-04-24T00:17:20;15.80;99.90
17859;DHT22;35426;30.698;104.050;2023-04-24T00:19:53;16.00;99.90
17859;DHT22;35426;30.698;104.050;2023-04-24T00:22:28;15.90;99.90
17859;DHT22;35426;30.698;104.050;2023-04-24T00:25:04;16.10;99.90
17859;DHT22;35426;30.698;104.050;2023-04-24T00:27:38;16.10;99.90
17859;DHT22;35426;30.698;104.050;2023-04-24T00:30:12;16.20;99.90
17859;DHT22;35426;30.698;104.050;2023-04-24T00:32:46;16.20;99.90
17859;DHT22;35426;30.698;104.050;2023-04-24T00:35:19;16.00;99.90
17859;DHT22;35426;30.698;104.050;2023-04-24T00:37:52;16.20;99.90
17859;DHT22;35426;30.698;104.050;2023-04-24T00:40:27;16.40;99.90
17859;DHT22;35426;30.698;104.050;2023-04-24T00:43:02;16.10;99.90
17859;DHT22;35426;30.698;104.050;2023-04-24T00:45:38;16.00;99.90
17859;DHT22;35426;30.698;104.050;2023-04-24T00:48:14;16.30;99.90
17859;DHT22;35426;30.698;104.050;2023-04-24T00:50:47;16.40;99.90
17859;DHT22;35426;30.698;104.050;2023-04-24T00:53:21;16.30;99.90
17859;DHT22;35426;30.698;104.050;2023-04-24T00:55:57;16.60;99.90
17859;DHT22;35426;30.698;104.050;2023-04-24T00:58:31;16.80;99.90
17859;DHT22;35426;30.698;104.050;2023-04-24T01:01:05;16.70;99.90
17859;DHT22;35426;30.698;104.050;2023-04-24T01:03:38;16.40;99.90
17859;DHT22;35426;30.698;104.050;2023-04-24T01:06:13;16.70;99.90
17859;DHT22;35426;30.698;104.050;2023-04-24T01:08:47;16.70;99.90
17859;DHT22;35426;30.698;104.050;2023-04-24T01:11:25;16.90;99.90
17859;DHT22;35426;30.698;104.050;2023-04-24T01:13:59;16.90;99.90
17859;DHT22;35426;30.698;104.050;2023-04-24T01:16:32;16.70;99.90
17859;DHT22;35426;30.698;104.050;2023-04-24T01:19:07;16.60;99.90
17859;DHT22;35426;30.698;104.050;2023-04-24T01:21:40;16.90;99.90
17859;DHT22;35426;30.698;104.050;2023-04-24T01:24:16;16.80;99.90
17859;DHT22;35426;30.698;104.050;2023-04-24T01:26:50;16.40;99.90
17859;DHT22;35426;30.698;104.050;2023-04-24T01:29:25;16.60;99.90
17859;DHT22;35426;30.698;104.050;2023-04-24T01:31:59;16.60;99.90
17859;DHT22;35426;30.698;104.050;2023-04-24T01:34:33;16.60;99.90
17859;DHT22;35426;30.698;104.050;2023-04-24T01:37:07;16.60;99.90
17859;DHT22;35426;30.698;104.050;2023-04-24T01:39:46;16.20;99.90
17859;DHT22;35426;30.698;104.050;2023-04-24T01:42:19;15.70;99.90
17859;DHT22;35426;30.698;104.050;2023-04-24T01:44:53;16.00;99.90
17859;DHT22;35426;30.698;104.050;2023-04-24T01:47:27;16.20;99.90
17859;DHT22;35426;30.698;104.050;2023-04-24T01:50:01;16.20;99.90
17859;DHT22;35426;30.698;104.050;2023-04-24T01:52:35;16.20;99.90
17859;DHT22;35426;30.698;104.050;2023-04-24T01:55:13;16.30;99.90
17859;DHT22;35426;30.698;104.050;2023-04-24T01:57:47;16.30;99.90
17859;DHT22;35426;30.698;104.050;2023-04-24T02:00:20;16.20;99.90
17859;DHT22;35426;30.698;104.050;2023-04-24T02:02:55;16.40;99.90
17859;DHT22;35426;30.698;104.050;2023-04-24T02:05:29;16.60;99.90
17859;DHT22;35426;30.698;104.050;2023-04-24T02:08:04;16.70;99.90
17859;DHT22;35426;30.698;104.050;2023-04-24T02:10:41;16.40;99.90
17859;DHT22;35426;30.698;104.050;2023-04-24T02:13:14;16.00;99.90
17859;DHT22;35426;30.698;104.050;2023-04-24T02:15:50;16.50;99.90
17859;DHT22;35426;30.698;104.050;2023-04-24T02:18:25;16.70;99.90
17859;DHT22;35426;30.698;104.050;2023-04-24T02:20:59;17.00;99.90
17859;DHT22;35426;30.698;104.050;2023-04-24T02:23:32;17.20;99.90
17859;DHT22;35426;30.698;104.050;2023-04-24T02:26:08;17.40;99.90
17859;DHT22;35426;30.698;104.050;2023-04-24T02:28:42;17.60;99.90
17859;DHT22;35426;30.698;104.050;2023-04-24T02:31:15;17.50;99.90
17859;DHT22;35426;30.698;104.050;2023-04-24T02:33:49;17.50;99.90
17859;DHT22;35426;30.698;104.050;2023-04-24T02:36:23;18.00;99.90
17859;DHT22;35426;30.698;104.050;2023-04-24T02:38:57;18.20;99.90
17859;DHT22;35426;30.698;104.050;2023-04-24T02:41:35;18.10;99.90
17859;DHT22;35426;30.698;104.050;2023-04-24T02:44:10;18.10;99.90
17859;DHT22;35426;30.698;104.050;2023-04-24T02:46:44;18.30;99.90
17859;DHT22;35426;30.698;104.050;2023-04-24T02:49:18;18.30;99.90
17859;DHT22;35426;30.698;104.050;2023-04-24T02:51:51;18.30;99.90
17859;DHT22;35426;30.698;104.050;2023-04-24T02:54:25;18.50;99.90
17859;DHT22;35426;30.698;104.050;2023-04-24T02:57:03;18.30;99.90
17859;DHT22;35426;30.698;104.050;2023-04-24T02:59:37;17.80;99.90
17859;DHT22;35426;30.698;104.050;2023-04-24T03:02:11;17.30;99.90
17859;DHT22;35426;30.698;104.050;2023-04-24T03:04:45;17.20;99.90
17859;DHT22;35426;30.698;104.050;2023-04-24T03:07:18;17.30;99.90
17859;DHT22;35426;30.698;104.050;2023-04-24T03:09:52;17.60;99.90
17859;DHT22;35426;30.698;104.050;2023-04-24T03:12:29;18.50;99.90
17859;DHT22;35426;30.698;104.050;2023-04-24T03:15:04;18.60;99.90
17859;DHT22;35426;30.698;104.050;2023-04-24T03:17:38;18.90;99.90
17859;DHT22;35426;30.698;104.050;2023-04-24T03:20:12;18.70;99.90
17859;DHT22;35426;30.698;104.050;2023-04-24T03:22:47;18.60;99.90
17859;DHT22;35426;30.698;104.050;2023-04-24T03:25:23;18.50;99.90
17859;DHT22;35426;30.698;104.050;2023-04-24T03:28:00;18.60;99.90
17859;DHT22;35426;30.698;104.050;2023-04-24T03:30:46;18.50;99.90
17859;DHT22;35426;30.698;104.050;2023-04-24T03:33:20;18.70;99.90
17859;DHT22;35426;30.698;104.050;2023-04-24T03:36:01;18.50;99.90
17859;DHT22;35426;30.698;104.050;2023-04-24T03:38:40;18.80;99.90
17859;DHT22;35426;30.698;104.050;2023-04-24T03:41:39;18.60;99.90
17859;DHT22;35426;30.698;104.050;2023-04-24T03:44:18;18.80;99.90
17859;DHT22;35426;30.698;104.050;2023-04-24T03:46:52;18.80;99.90
17859;DHT22;35426;30.698;104.050;2023-04-24T03:49:25;18.60;99.90
17859;DHT22;35426;30.698;104.050;2023-04-24T03:51:59;18.40;99.90
17859;DHT22;35426;30.698;104.050;2023-04-24T03:54:33;18.40;99.90
17859;DHT22;35426;30.698;104.050;2023-04-24T03:57:07;18.40;99.90
17859;DHT22;35426;30.698;104.050;2023-04-24T03:59:53;18.80;99.90
17859;DHT22;35426;30.698;104.050;2023-04-24T04:02:27;19.10;99.90
17859;DHT22;35426;30.698;104.050;2023-04-24T04:05:01;19.20;99.90
17859;DHT22;35426;30.698;104.050;2023-04-24T04:07:35;19.10;99.90
17859;DHT22;35426;30.698;104.050;2023-04-24T04:10:09;19.00;99.90
17859;DHT22;35426;30.698;104.050;2023-04-24T04:12:43;18.70;99.90
17859;DHT22;35426;30.698;104.050;2023-04-24T04:15:17;19.30;99.90
17859;DHT22;35426;30.698;104.050;2023-04-24T04:17:52;18.90;99.90
17859;DHT22;35426;30.698;104.050;2023-04-24T04:20:25;18.90;99.90
17859;DHT22;35426;30.698;104.050;2023-04-24T04:22:59;18.70;99.90
17859;DHT22;35426;30.698;104.050;2023-04-24T04:25:43;19.30;99.90
17859;DHT22;35426;30.698;104.050;2023-04-24T04:28:20;19.40;99.90
17859;DHT22;35426;30.698;104.050;2023-04-24T04:30:56;19.50;99.90
17859;DHT22;35426;30.698;104.050;2023-04-24T04:33:28;19.80;99.90
17859;DHT22;35426;30.698;104.050;2023-04-24T04:36:02;19.60;99.90
17859;DHT22;35426;30.698;104.050;2023-04-24T04:38:40;19.90;99.90
17859;DHT22;35426;30.698;104.050;2023-04-24T04:41:42;19.40;99.90
17859;DHT22;35426;30.698;104.050;2023-04-24T04:44:19;19.20;99.90
17859;DHT22;35426;30.698;104.050;2023-04-24T04:46:55;19.50;99.90
17859;DHT22;35426;30.698;104.050;2023-04-24T04:49:33;19.80;99.90
17859;DHT22;35426;30.698;104.050;2023-04-24T04:52:11;20.30;99.90
17859;DHT22;35426;30.698;104.050;2023-04-24T04:54:44;20.00;99.90
17859;DHT22;35426;30.698;104.050;2023-04-24T04:57:18;20.20;99.90
17859;DHT22;35426;30.698;104.050;2023-04-24T04:59:52;20.00;99.90
17859;DHT22;35426;30.698;104.050;2023-04-24T05:02:41;20.00;99.90
17859;DHT22;35426;30.698;104.050;2023-04-24T05:05:15;20.20;99.90
17859;DHT22;35426;30.698;104.050;2023-04-24T05:07:50;20.10;99.90
17859;DHT22;35426;30.698;104.050;2023-04-24T05:10:24;19.90;99.90
17859;DHT22;35426;30.698;104.050;2023-04-24T05:12:57;20.60;99.90
17859;DHT22;35426;30.698;104.050;2023-04-24T05:15:31;21.00;99.90
17859;DHT22;35426;30.698;104.050;2023-04-24T05:18:06;20.50;99.90
17859;DHT22;35426;30.698;104.050;2023-04-24T05:20:40;20.10;99.90
17859;DHT22;35426;30.698;104.050;2023-04-24T05:23:15;20.30;99.90
17859;DHT22;35426;30.698;104.050;2023-04-24T05:25:52;19.50;99.90
17859;DHT22;35426;30.698;104.050;2023-04-24T05:28:26;19.60;99.90
17859;DHT22;35426;30.698;104.050;2023-04-24T05:31:07;19.70;99.90
17859;DHT22;35426;30.698;104.050;2023-04-24T05:33:43;19.70;99.90
17859;DHT22;35426;30.698;104.050;2023-04-24T05:36:16;20.00;99.90
17859;DHT22;35426;30.698;104.050;2023-04-24T05:38:50;19.40;99.90
17859;DHT22;35426;30.698;104.050;2023-04-24T05:41:23;19.40;99.90
17859;DHT22;35426;30.698;104.050;2023-04-24T05:43:57;19.50;99.90
17859;DHT22;35426;30.698;104.050;2023-04-24T05:46:31;19.80;99.90
17859;DHT22;35426;30.698;104.050;2023-04-24T05:49:07;20.00;99.90
17859;DHT22;35426;30.698;104.050;2023-04-24T05:51:41;20.00;99.90
17859;DHT22;35426;30.698;104.050;2023-04-24T05:54:17;20.00;99.90
17859;DHT22;35426;30.698;104.050;2023-04-24T05:56:52;20.20;99.90
17859;DHT22;35426;30.698;104.050;2023-04-24T05:59:37;20.20;99.90
17859;DHT22;35426;30.698;104.050;2023-04-24T06:02:12;20.50;99.90
17859;DHT22;35426;30.698;104.050;2023-04-24T06:04:49;20.00;99.90
17859;DHT22;35426;30.698;104.050;2023-04-24T06:07:23;20.60;99.90
17859;DHT22;35426;30.698;104.050;2023-04-24T06:09:57;20.80;99.90
17859;DHT22;35426;30.698;104.050;2023-04-24T06:12:36;21.00;99.90
17859;DHT22;35426;30.698;104.050;2023-04-24T06:15:16;20.00;99.90
17859;DHT22;35426;30.698;104.050;2023-04-24T06:17:58;20.00;99.90
17859;DHT22;35426;30.698;104.050;2023-04-24T06:20:33;20.30;99.90
17859;DHT22;35426;30.698;104.050;2023-04-24T06:23:06;21.00;99.90
17859;DHT22;35426;30.698;104.050;2023-04-24T06:25:40;21.40;99.90
17859;DHT22;35426;30.698;104.050;2023-04-24T06:28:13;20.80;99.90
17859;DHT22;35426;30.698;104.050;2023-04-24T06:30:47;20.10;99.90
17859;DHT22;35426;30.698;104.050;2023-04-24T06:33:21;20.20;99.90
17859;DHT22;35426;30.698;104.050;2023-04-24T06:35:56;20.20;99.90
17859;DHT22;35426;30.698;104.050;2023-04-24T06:38:30;19.30;99.90
17859;DHT22;35426;30.698;104.050;2023-04-24T06:41:04;19.50;99.90
17859;DHT22;35426;30.698;104.050;2023-04-24T06:43:37;19.40;99.90
17859;DHT22;35426;30.698;104.050;2023-04-24T06:46:11;19.70;99.90
17859;DHT22;35426;30.698;104.050;2023-04-24T06:48:44;19.50;99.90
17859;DHT22;35426;30.698;104.050;2023-04-24T06:51:20;19.50;99.90
17859;DHT22;35426;30.698;104.050;2023-04-24T06:53:54;19.90;99.90
17859;DHT22;35426;30.698;104.050;2023-04-24T06:56:29;20.40;99.90
17859;DHT22;35426;30.698;104.050;2023-04-24T06:59:07;20.50;99.90
17859;DHT22;35426;30.698;104.050;2023-04-24T07:01:42;20.60;99.90
17859;DHT22;35426;30.698;104.050;2023-04-24T07:04:16;20.10;99.90
17859;DHT22;35426;30.698;104.050;2023-04-24T07:07:02;18.80;99.90
17859;DHT22;35426;30.698;104.050;2023-04-24T07:09:41;19.00;99.90
17859;DHT22;35426;30.698;104.050;2023-04-24T07:12:16;19.30;99.90
17859;DHT22;35426;30.698;104.050;2023-04-24T07:14:51;19.60;99.90
17859;DHT22;35426;30.698;104.050;2023-04-24T07:17:25;20.10;99.90
17859;DHT22;35426;30.698;104.050;2023-04-24T07:19:58;20.00;99.90
17859;DHT22;35426;30.698;104.050;2023-04-24T07:22:33;19.90;99.90
17859;DHT22;35426;30.698;104.050;2023-04-24T07:25:08;19.60;99.90
17859;DHT22;35426;30.698;104.050;2023-04-24T07:27:45;19.80;99.90
17859;DHT22;35426;30.698;104.050;2023-04-24T07:30:19;20.10;99.90
17859;DHT22;35426;30.698;104.050;2023-04-24T07:32:53;20.00;99.90
17859;DHT22;35426;30.698;104.050;2023-04-24T07:35:27;20.10;99.90
17859;DHT22;35426;30.698;104.050;2023-04-24T07:38:02;19.90;99.90
17859;DHT22;35426;30.698;104.050;2023-04-24T07:40:36;19.80;99.90
17859;DHT22;35426;30.698;104.050;2023-04-24T07:43:10;19.50;99.90
17859;DHT22;35426;30.698;104.050;2023-04-24T07:45:48;19.70;99.90
17859;DHT22;35426;30.698;104.050;2023-04-24T07:48:22;19.50;99.90
17859;DHT22;35426;30.698;104.050;2023-04-24T07:50:57;19.60;99.90
17859;DHT22;35426;30.698;104.050;2023-04-24T07:53:33;19.70;99.90
17859;DHT22;35426;30.698;104.050;2023-04-24T07:56:07;19.80;99.90
17859;DHT22;35426;30.698;104.050;2023-04-24T07:58:40;19.70;99.90
17859;DHT22;35426;30.698;104.050;2023-04-24T08:01:14;19.60;99.90
17859;DHT22;35426;30.698;104.050;2023-04-24T08:03:47;19.40;99.90
17859;DHT22;35426;30.698;104.050;2023-04-24T08:06:21;19.20;99.90
17859;DHT22;35426;30.698;104.050;2023-04-24T08:08:58;19.00;99.90
17859;DHT22;35426;30.698;104.050;2023-04-24T08:11:31;19.00;99.90
17859;DHT22;35426;30.698;104.050;2023-04-24T08:14:06;18.90;99.90
17859;DHT22;35426;30.698;104.050;2023-04-24T08:16:39;19.10;99.90
17859;DHT22;35426;30.698;104.050;2023-04-24T08:19:14;19.30;99.90
17859;DHT22;35426;30.698;104.050;2023-04-24T08:21:50;19.00;99.90
17859;DHT22;35426;30.698;104.050;2023-04-24T08:24:30;19.10;99.90
17859;DHT22;35426;30.698;104.050;2023-04-24T08:27:04;19.10;99.90
17859;DHT22;35426;30.698;104.050;2023-04-24T08:29:38;18.90;99.90
17859;DHT22;35426;30.698;104.050;2023-04-24T08:32:11;18.60;99.90
17859;DHT22;35426;30.698;104.050;2023-04-24T08:34:45;18.50;99.90
17859;DHT22;35426;30.698;104.050;2023-04-24T08:37:18;18.50;99.90
17859;DHT22;35426;30.698;104.050;2023-04-24T08:39:54;18.20;99.90
17859;DHT22;35426;30.698;104.050;2023-04-24T08:42:30;17.90;99.90
17859;DHT22;35426;30.698;104.050;2023-04-24T08:45:04;18.20;99.90
17859;DHT22;35426;30.698;104.050;2023-04-24T08:47:41;18.50;99.90
17859;DHT22;35426;30.698;104.050;2023-04-24T08:50:16;18.30;99.90
17859;DHT22;35426;30.698;104.050;2023-04-24T08:52:50;18.20;99.90
17859;DHT22;35426;30.698;104.050;2023-04-24T08:55:26;18.10;99.90
17859;DHT22;35426;30.698;104.050;2023-04-24T08:58:00;17.70;99.90
17859;DHT22;35426;30.698;104.050;2023-04-24T09:00:34;17.40;99.90
17859;DHT22;35426;30.698;104.050;2023-04-24T09:03:08;17.70;99.90
17859;DHT22;35426;30.698;104.050;2023-04-24T09:05:42;17.90;99.90
17859;DHT22;35426;30.698;104.050;2023-04-24T09:08:19;18.00;99.90
17859;DHT22;35426;30.698;104.050;2023-04-24T09:10:55;18.10;99.90
17859;DHT22;35426;30.698;104.050;2023-04-24T09:13:33;18.20;99.90
17859;DHT22;35426;30.698;104.050;2023-04-24T09:16:06;18.20;99.90
17859;DHT22;35426;30.698;104.050;2023-04-24T09:18:39;18.20;99.90
17859;DHT22;35426;30.698;104.050;2023-04-24T09:21:13;18.10;99.90
17859;DHT22;35426;30.698;104.050;2023-04-24T09:23:47;17.60;99.90
17859;DHT22;35426;30.698;104.050;2023-04-24T09:26:34;16.90;99.90
17859;DHT22;35426;30.698;104.050;2023-04-24T09:29:13;16.80;99.90
17859;DHT22;35426;30.698;104.050;2023-04-24T09:31:47;16.80;99.90
17859;DHT22;35426;30.698;104.050;2023-04-24T09:34:23;16.80;99.90
17859;DHT22;35426;30.698;104.050;2023-04-24T09:36:56;16.80;99.90
17859;DHT22;35426;30.698;104.050;2023-04-24T09:39:30;16.80;99.90
17859;DHT22;35426;30.698;104.050;2023-04-24T09:42:26;16.80;99.90
17859;DHT22;35426;30.698;104.050;2023-04-24T09:45:02;16.80;99.90
17859;DHT22;35426;30.698;104.050;2023-04-24T09:47:44;16.80;99.90
17859;DHT22;35426;30.698;104.050;2023-04-24T09:50:18;16.80;99.90
17859;DHT22;35426;30.698;104.050;2023-04-24T09:52:57;17.30;99.90
17859;DHT22;35426;30.698;104.050;2023-04-24T09:55:31;17.60;99.90
17859;DHT22;35426;30.698;104.050;2023-04-24T09:58:07;17.50;99.90
17859;DHT22;35426;30.698;104.050;2023-04-24T10:00:40;17.50;99.90
17859;DHT22;35426;30.698;104.050;2023-04-24T10:03:14;17.50;99.90
17859;DHT22;35426;30.698;104.050;2023-04-24T10:05:48;17.50;99.90
17859;DHT22;35426;30.698;104.050;2023-04-24T10:08:22;17.40;99.90
17859;DHT22;35426;30.698;104.050;2023-04-24T10:10:55;17.60;99.90
17859;DHT22;35426;30.698;104.050;2023-04-24T10:13:33;17.60;99.90
17859;DHT22;35426;30.698;104.050;2023-04-24T10:16:07;17.60;99.90
17859;DHT22;35426;30.698;104.050;2023-04-24T10:18:41;17.40;99.90
17859;DHT22;35426;30.698;104.050;2023-04-24T10:21:15;17.50;99.90
17859;DHT22;35426;30.698;104.050;2023-04-24T10:23:50;17.60;99.90
17859;DHT22;35426;30.698;104.050;2023-04-24T10:26:24;17.60;99.90
17859;DHT22;35426;30.698;104.050;2023-04-24T10:28:59;17.60;99.90
17859;DHT22;35426;30.698;104.050;2023-04-24T10:31:34;17.50;99.90
17859;DHT22;35426;30.698;104.050;2023-04-24T10:34:08;17.60;99.90
17859;DHT22;35426;30.698;104.050;2023-04-24T10:36:46;17.50;99.90
17859;DHT22;35426;30.698;104.050;2023-04-24T10:39:24;17.60;99.90
17859;DHT22;35426;30.698;104.050;2023-04-24T10:41:58;17.70;99.90
17859;DHT22;35426;30.698;104.050;2023-04-24T10:44:41;17.70;99.90
17859;DHT22;35426;30.698;104.050;2023-04-24T10:47:15;17.70;99.90
17859;DHT22;35426;30.698;104.050;2023-04-24T10:49:51;17.70;99.90
17859;DHT22;35426;30.698;104.050;2023-04-24T10:52:44;17.80;99.90
17859;DHT22;35426;30.698;104.050;2023-04-24T10:55:41;17.70;99.90
17859;DHT22;35426;30.698;104.050;2023-04-24T10:58:16;17.70;99.90
17859;DHT22;35426;30.698;104.050;2023-04-24T11:00:58;17.60;99.90
17859;DHT22;35426;30.698;104.050;2023-04-24T11:03:34;17.50;99.90
17859;DHT22;35426;30.698;104.050;2023-04-24T11:06:13;17.40;99.90
17859;DHT22;35426;30.698;104.050;2023-04-24T11:08:47;17.40;99.90
17859;DHT22;35426;30.698;104.050;2023-04-24T11:11:20;17.30;99.90
17859;DHT22;35426;30.698;104.050;2023-04-24T11:14:06;17.40;99.90
17859;DHT22;35426;30.698;104.050;2023-04-24T11:16:51;17.30;99.90
17859;DHT22;35426;30.698;104.050;2023-04-24T11:19:26;17.10;99.90
17859;DHT22;35426;30.698;104.050;2023-04-24T11:22:02;17.20;99.90
17859;DHT22;35426;30.698;104.050;2023-04-24T11:24:39;17.30;99.90
17859;DHT22;35426;30.698;104.050;2023-04-24T11:27:20;17.30;99.90
17859;DHT22;35426;30.698;104.050;2023-04-24T11:30:00;17.20;99.90
17859;DHT22;35426;30.698;104.050;2023-04-24T11:32:38;17.30;99.90
17859;DHT22;35426;30.698;104.050;2023-04-24T11:35:15;17.30;99.90
17859;DHT22;35426;30.698;104.050;2023-04-24T11:37:50;17.20;99.90
17859;DHT22;35426;30.698;104.050;2023-04-24T11:40:27;17.20;99.90
17859;DHT22;35426;30.698;104.050;2023-04-24T11:43:01;17.20;99.90
17859;DHT22;35426;30.698;104.050;2023-04-24T11:45:37;17.30;99.90
17859;DHT22;35426;30.698;104.050;2023-04-24T11:48:12;17.30;99.90
17859;DHT22;35426;30.698;104.050;2023-04-24T11:50:52;17.50;99.90
17859;DHT22;35426;30.698;104.050;2023-04-24T11:53:26;17.40;99.90
17859;DHT22;35426;30.698;104.050;2023-04-24T11:56:03;17.40;99.90
17859;DHT22;35426;30.698;104.050;2023-04-24T11:58:37;17.30;99.90
17859;DHT22;35426;30.698;104.050;2023-04-24T12:01:11;17.10;99.90
17859;DHT22;35426;30.698;104.050;2023-04-24T12:03:48;17.00;99.90
17859;DHT22;35426;30.698;104.050;2023-04-24T12:06:23;17.00;99.90
17859;DHT22;35426;30.698;104.050;2023-04-24T12:08:56;17.00;99.90
17859;DHT22;35426;30.698;104.050;2023-04-24T12:11:53;17.00;99.90
17859;DHT22;35426;30.698;104.050;2023-04-24T12:14:27;17.10;99.90
17859;DHT22;35426;30.698;104.050;2023-04-24T12:17:04;17.10;99.90
17859;DHT22;35426;30.698;104.050;2023-04-24T12:19:46;17.20;99.90
17859;DHT22;35426;30.698;104.050;2023-04-24T12:22:20;17.20;99.90
17859;DHT22;35426;30.698;104.050;2023-04-24T12:25:01;17.20;99.90
17859;DHT22;35426;30.698;104.050;2023-04-24T12:27:37;17.20;99.90
17859;DHT22;35426;30.698;104.050;2023-04-24T12:30:13;17.10;99.90
17859;DHT22;35426;30.698;104.050;2023-04-24T12:32:49;17.20;99.90
17859;DHT22;35426;30.698;104.050;2023-04-24T12:35:29;17.20;99.90
17859;DHT22;35426;30.698;104.050;2023-04-24T12:38:09;17.10;99.90
17859;DHT22;35426;30.698;104.050;2023-04-24T12:40:44;17.00;99.90
17859;DHT22;35426;30.698;104.050;2023-04-24T12:43:19;17.00;99.90
17859;DHT22;35426;30.698;104.050;2023-04-24T12:45:52;16.90;99.90
17859;DHT22;35426;30.698;104.050;2023-04-24T12:48:27;16.90;99.90
17859;DHT22;35426;30.698;104.050;2023-04-24T12:51:02;16.80;99.90
17859;DHT22;35426;30.698;104.050;2023-04-24T12:53:36;16.80;99.90
17859;DHT22;35426;30.698;104.050;2023-04-24T12:56:13;16.70;99.90
17859;DHT22;35426;30.698;104.050;2023-04-24T12:58:50;16.60;99.90
17859;DHT22;35426;30.698;104.050;2023-04-24T13:01:27;16.30;99.90
17859;DHT22;35426;30.698;104.050;2023-04-24T13:04:01;16.20;99.90
17859;DHT22;35426;30.698;104.050;2023-04-24T13:06:37;16.00;99.90
17859;DHT22;35426;30.698;104.050;2023-04-24T13:09:10;16.10;99.90
17859;DHT22;35426;30.698;104.050;2023-04-24T13:11:43;16.30;99.90
17859;DHT22;35426;30.698;104.050;2023-04-24T13:14:16;16.20;99.90
17859;DHT22;35426;30.698;104.050;2023-04-24T13:16:49;16.30;99.90
17859;DHT22;35426;30.698;104.050;2023-04-24T13:19:27;16.20;99.90
17859;DHT22;35426;30.698;104.050;2023-04-24T13:22:04;16.20;99.90
17859;DHT22;35426;30.698;104.050;2023-04-24T13:24:38;16.30;99.90
17859;DHT22;35426;30.698;104.050;2023-04-24T13:27:12;16.40;99.90
17859;DHT22;35426;30.698;104.050;2023-04-24T13:29:46;16.40;99.90
17859;DHT22;35426;30.698;104.050;2023-04-24T13:32:19;16.30;99.90
17859;DHT22;35426;30.698;104.050;2023-04-24T13:34:52;16.40;99.90
17859;DHT22;35426;30.698;104.050;2023-04-24T13:37:28;16.40;99.90
17859;DHT22;35426;30.698;104.050;2023-04-24T13:40:02;16.40;99.90
17859;DHT22;35426;30.698;104.050;2023-04-24T13:42:38;16.40;99.90
17859;DHT22;35426;30.698;104.050;2023-04-24T13:45:13;16.30;99.90
17859;DHT22;35426;30.698;104.050;2023-04-24T13:47:52;16.20;99.90
17859;DHT22;35426;30.698;104.050;2023-04-24T13:50:30;16.20;99.90
17859;DHT22;35426;30.698;104.050;2023-04-24T13:53:05;16.00;99.90
17859;DHT22;35426;30.698;104.050;2023-04-24T13:55:38;15.90;99.90
17859;DHT22;35426;30.698;104.050;2023-04-24T13:58:14;15.70;99.90
17859;DHT22;35426;30.698;104.050;2023-04-24T14:00:47;15.80;99.90
17859;DHT22;35426;30.698;104.050;2023-04-24T14:03:21;15.90;99.90
17859;DHT22;35426;30.698;104.050;2023-04-24T14:05:54;16.00;99.90
17859;DHT22;35426;30.698;104.050;2023-04-24T14:08:31;16.00;99.90
17859;DHT22;35426;30.698;104.050;2023-04-24T14:11:06;15.90;99.90
17859;DHT22;35426;30.698;104.050;2023-04-24T14:13:40;16.00;99.90
17859;DHT22;35426;30.698;104.050;2023-04-24T14:16:15;16.10;99.90
17859;DHT22;35426;30.698;104.050;2023-04-24T14:18:49;16.30;99.90
17859;DHT22;35426;30.698;104.050;2023-04-24T14:21:23;16.30;99.90
17859;DHT22;35426;30.698;104.050;2023-04-24T14:24:00;16.30;99.90
17859;DHT22;35426;30.698;104.050;2023-04-24T14:26:34;16.40;99.90
17859;DHT22;35426;30.698;104.050;2023-04-24T14:29:10;16.30;99.90
17859;DHT22;35426;30.698;104.050;2023-04-24T14:31:44;16.40;99.90
17859;DHT22;35426;30.698;104.050;2023-04-24T14:34:17;16.30;99.90
17859;DHT22;35426;30.698;104.050;2023-04-24T14:36:50;16.10;99.90
17859;DHT22;35426;30.698;104.050;2023-04-24T14:39:26;16.30;99.90
17859;DHT22;35426;30.698;104.050;2023-04-24T14:42:02;16.40;99.90
17859;DHT22;35426;30.698;104.050;2023-04-24T14:44:35;16.40;99.90
17859;DHT22;35426;30.698;104.050;2023-04-24T14:47:12;16.40;99.90
17859;DHT22;35426;30.698;104.050;2023-04-24T14:49:47;16.50;99.90
17859;DHT22;35426;30.698;104.050;2023-04-24T14:52:24;16.50;99.90
17859;DHT22;35426;30.698;104.050;2023-04-24T14:54:59;16.60;99.90
17859;DHT22;35426;30.698;104.050;2023-04-24T14:57:33;16.50;99.90
17859;DHT22;35426;30.698;104.050;2023-04-24T15:00:07;16.60;99.90
17859;DHT22;35426;30.698;104.050;2023-04-24T15:02:41;16.50;99.90
17859;DHT22;35426;30.698;104.050;2023-04-24T15:05:15;16.20;99.90
17859;DHT22;35426;30.698;104.050;2023-04-24T15:07:49;16.20;99.90
17859;DHT22;35426;30.698;104.050;2023-04-24T15:10:25;16.30;99.90
17859;DHT22;35426;30.698;104.050;2023-04-24T15:13:07;16.30;99.90
17859;DHT22;35426;30.698;104.050;2023-04-24T15:15:40;16.50;99.90
17859;DHT22;35426;30.698;104.050;2023-04-24T15:18:14;16.30;99.90
17859;DHT22;35426;30.698;104.050;2023-04-24T15:20:47;16.40;99.90
17859;DHT22;35426;30.698;104.050;2023-04-24T15:23:20;16.30;99.90
17859;DHT22;35426;30.698;104.050;2023-04-24T15:25:55;16.30;99.90
17859;DHT22;35426;30.698;104.050;2023-04-24T15:28:29;16.30;99.90
17859;DHT22;35426;30.698;104.050;2023-04-24T15:31:06;16.40;99.90
17859;DHT22;35426;30.698;104.050;2023-04-24T15:33:40;16.40;99.90
17859;DHT22;35426;30.698;104.050;2023-04-24T15:36:13;16.10;99.90
17859;DHT22;35426;30.698;104.050;2023-04-24T15:38:47;16.30;99.90
17859;DHT22;35426;30.698;104.050;2023-04-24T15:41:28;16.10;99.90
17859;DHT22;35426;30.698;104.050;2023-04-24T15:44:01;16.10;99.90
17859;DHT22;35426;30.698;104.050;2023-04-24T15:46:35;16.00;99.90
17859;DHT22;35426;30.698;104.050;2023-04-24T15:49:09;16.10;99.90
17859;DHT22;35426;30.698;104.050;2023-04-24T15:51:43;16.30;99.90
17859;DHT22;35426;30.698;104.050;2023-04-24T15:54:16;16.20;99.90